Time;durP1;ratioP1;P1;durP2;ratioP2;P2;SDS_P1;SDS_P2;PMS_P1;PMS_P2;Temp;Humidity;BMP_temperature;BMP_pressure;BME280_temperature;BME280_humidity;BME280_pressure;Samples;Min_cycle;Max_cycle;Signal;HPM_P1;HPM_P2
2021/04/20 00:02:12;;;;;;;11.75;10.55;;;;;;;8.53;73.24;100265.08;1723142;81;21160;-46
2021/04/20 00:04:40;;;;;;;13.13;11.60;;;;;;;8.54;73.21;100267.26;1723200;81;21159;-45
2021/04/20 00:07:08;;;;;;;12.15;10.85;;;;;;;8.55;73.13;100258.36;1721109;81;21646;-46
2021/04/20 00:09:35;;;;;;;13.28;11.50;;;;;;;8.56;73.30;100262.73;1724459;81;21142;-44
2021/04/20 00:12:04;;;;;;;13.48;12.05;;;;;;;8.57;73.48;100260.48;1732977;81;21186;-45
2021/04/20 00:14:31;;;;;;;14.10;11.85;;;;;;;8.58;73.53;100259.52;1717916;82;21155;-46
2021/04/20 00:16:59;;;;;;;14.13;11.00;;;;;;;8.58;73.38;100252.88;1726309;81;21146;-47
2021/04/20 00:19:28;;;;;;;16.35;13.13;;;;;;;8.57;73.21;100253.83;1721512;81;21141;-43
2021/04/20 00:21:55;;;;;;;16.02;13.72;;;;;;;8.55;73.05;100245.08;1714367;81;21106;-43
2021/04/20 00:24:23;;;;;;;13.80;12.13;;;;;;;8.47;73.01;100241.50;1729677;81;21150;-43
2021/04/20 00:26:50;;;;;;;15.93;13.08;;;;;;;8.37;72.91;100247.73;1728706;81;21146;-43
2021/04/20 00:29:18;;;;;;;16.75;14.15;;;;;;;8.24;73.01;100241.36;1726577;81;21150;-45
2021/04/20 00:31:46;;;;;;;16.77;13.25;;;;;;;8.11;73.32;100238.94;1718781;81;21546;-43
2021/04/20 00:34:13;;;;;;;15.53;12.78;;;;;;;8.01;73.98;100242.53;1723929;81;21170;-42
2021/04/20 00:36:41;;;;;;;15.78;13.08;;;;;;;7.97;74.41;100237.86;1727091;81;21143;-43
2021/04/20 00:39:08;;;;;;;15.15;12.85;;;;;;;7.99;74.59;100235.14;1720447;81;21161;-42
2021/04/20 00:41:36;;;;;;;14.55;11.95;;;;;;;8.03;74.62;100232.22;1725158;82;21138;-43
2021/04/20 00:44:04;;;;;;;14.23;12.47;;;;;;;8.08;74.54;100229.33;1727577;81;21677;-43
2021/04/20 00:46:32;;;;;;;15.25;12.40;;;;;;;8.12;74.41;100227.39;1723071;81;21582;-43
2021/04/20 00:48:59;;;;;;;17.07;13.75;;;;;;;8.12;74.31;100218.95;1723417;81;21154;-43
2021/04/20 00:51:27;;;;;;;16.37;13.38;;;;;;;8.05;74.28;100220.20;1730604;81;21127;-44
2021/04/20 00:53:55;;;;;;;17.48;13.22;;;;;;;7.97;74.35;100218.42;1728065;81;21119;-43
2021/04/20 00:56:23;;;;;;;18.00;13.90;;;;;;;7.86;74.49;100214.11;1717723;81;21150;-43
2021/04/20 00:58:51;;;;;;;17.50;13.80;;;;;;;7.80;74.65;100205.53;1728195;81;21578;-44
2021/04/20 01:01:18;;;;;;;17.12;13.40;;;;;;;7.80;74.89;100208.66;1732064;81;21135;-44
2021/04/20 01:03:46;;;;;;;15.58;12.80;;;;;;;7.82;74.76;100198.83;1725509;82;21131;-42
2021/04/20 01:06:14;;;;;;;16.87;13.35;;;;;;;7.87;74.63;100202.10;1727241;82;21130;-43
2021/04/20 01:08:41;;;;;;;16.73;12.82;;;;;;;7.90;74.53;100193.12;1726852;82;21566;-50
2021/04/20 01:11:10;;;;;;;14.60;12.70;;;;;;;7.91;74.32;100190.40;1718525;81;21678;-45
2021/04/20 01:13:37;;;;;;;17.52;13.62;;;;;;;7.89;73.79;100191.42;1722040;81;21678;-47
2021/04/20 01:16:05;;;;;;;16.02;12.50;;;;;;;7.75;73.80;100188.12;1730909;81;21138;-42
2021/04/20 01:18:36;;;;;;;18.50;14.53;;;;;;;7.64;73.89;100189.16;1722684;81;21662;-44
2021/04/20 01:21:09;;;;;;;19.92;15.08;;;;;;;7.52;74.01;100185.32;1722102;82;21657;-43
2021/04/20 01:24:13;;;;;;;19.25;15.25;;;;;;;7.44;74.30;100184.38;1730865;82;21151;-41
2021/04/20 01:26:45;;;;;;;19.50;14.07;;;;;;;7.40;74.63;100184.13;1721332;81;21209;-45
2021/04/20 01:29:13;;;;;;;15.90;13.30;;;;;;;7.31;75.17;100183.28;1725625;81;21150;-45
2021/04/20 01:31:43;;;;;;;16.62;12.82;;;;;;;7.31;75.17;100183.28;1722360;81;21131;-46
2021/04/20 01:34:11;;;;;;;18.35;13.88;;;;;;;7.30;75.37;100177.09;1720260;81;21138;-46
2021/04/20 01:36:39;;;;;;;14.20;12.70;;;;;;;7.33;75.50;100172.11;1725561;82;21596;-46
2021/04/20 01:39:10;;;;;;;14.78;12.80;;;;;;;7.31;75.61;100155.44;1726553;82;21150;-42
2021/04/20 01:41:38;;;;;;;14.38;11.83;;;;;;;7.31;75.61;100155.44;1730861;81;21138;-44
2021/04/20 01:44:06;;;;;;;15.60;12.60;;;;;;;7.33;75.66;100162.82;1722932;81;21158;-44
2021/04/20 01:46:34;;;;;;;15.58;13.45;;;;;;;7.37;75.59;100160.42;1731497;81;21571;-44
2021/04/20 01:49:02;;;;;;;15.15;13.53;;;;;;;7.38;75.68;100159.47;1721761;81;21142;-44
2021/04/20 01:51:30;;;;;;;13.20;11.78;;;;;;;7.36;75.75;100156.06;1728936;81;21142;-48
2021/04/20 01:53:58;;;;;;;15.20;12.03;;;;;;;7.34;75.96;100158.78;1703180;81;21157;-46
2021/04/20 01:56:25;;;;;;;14.25;11.65;;;;;;;7.38;75.89;100159.47;1745133;81;21130;-44
2021/04/20 01:58:53;;;;;;;13.70;11.75;;;;;;;7.38;75.89;100159.47;1701890;81;21154;-43
2021/04/20 02:01:24;;;;;;;14.65;12.70;;;;;;;7.35;75.52;100145.89;1725042;82;21167;-43
2021/04/20 02:03:52;;;;;;;14.75;12.82;;;;;;;7.35;75.52;100145.89;1660597;84;21653;-44
2021/04/20 02:06:22;;;;;;;15.13;13.15;;;;;;;7.32;75.62;100145.20;1732685;81;21136;-43
2021/04/20 02:08:50;;;;;;;13.93;11.68;;;;;;;7.22;75.74;100151.43;1725721;82;21134;-44
2021/04/20 02:11:20;;;;;;;14.25;12.50;;;;;;;7.08;76.28;100141.96;1732417;81;21110;-43
2021/04/20 02:13:48;;;;;;;14.55;13.13;;;;;;;6.96;76.51;100142.59;1720836;82;21158;-40
2021/04/20 02:16:15;;;;;;;16.02;12.60;;;;;;;6.91;77.01;100133.06;1723902;81;21142;-43
2021/04/20 02:18:51;;;;;;;12.80;11.50;;;;;;;6.92;77.43;100131.26;1702482;82;21142;-41
2021/04/20 02:21:18;;;;;;;13.80;11.60;;;;;;;6.92;77.43;100131.26;1725138;81;21099;-40
2021/04/20 02:23:46;;;;;;;13.35;11.90;;;;;;;6.92;77.60;100133.44;1718172;81;21968;-43
2021/04/20 02:26:26;;;;;;;12.85;11.55;;;;;;;6.89;77.64;100124.31;1729080;81;21924;-41
2021/04/20 02:29:19;;;;;;;14.53;12.23;;;;;;;6.93;77.82;100127.22;1785924;78;22920;-45
2021/04/20 02:31:46;;;;;;;14.10;11.78;;;;;;;6.89;78.01;100116.84;1765625;80;21154;-44
2021/04/20 02:34:14;;;;;;;13.65;12.23;;;;;;;6.86;78.23;100117.84;1770792;79;21153;-44
2021/04/20 02:36:43;;;;;;;14.15;12.58;;;;;;;6.86;78.23;100117.84;1773246;79;21263;-43
2021/04/20 02:39:12;;;;;;;17.35;12.20;;;;;;;6.81;78.61;100115.89;1704811;82;21587;-42
2021/04/20 02:41:40;;;;;;;14.07;12.10;;;;;;;6.76;78.81;100115.25;1723875;82;21171;-41
2021/04/20 02:44:09;;;;;;;14.93;12.65;;;;;;;6.75;78.98;100119.29;1715629;82;21152;-39
2021/04/20 02:46:38;;;;;;;12.93;11.63;;;;;;;6.78;79.36;100119.14;1741665;81;21152;-46
2021/04/20 02:49:06;;;;;;;17.40;13.62;;;;;;;6.84;79.34;100121.03;1743995;81;21185;-47
2021/04/20 02:51:34;;;;;;;14.20;11.90;;;;;;;6.87;79.35;100119.55;1742396;81;21177;-44
2021/04/20 02:54:02;;;;;;;15.72;13.05;;;;;;;6.87;79.35;100119.55;1711850;82;21200;-48
2021/04/20 02:56:30;;;;;;;14.85;13.00;;;;;;;6.88;79.27;100116.45;1712165;82;21196;-46
2021/04/20 02:58:59;;;;;;;15.03;12.40;;;;;;;6.88;79.41;100118.64;1714175;82;21209;-44
2021/04/20 03:01:30;;;;;;;18.73;14.18;;;;;;;6.86;79.57;100117.84;1705848;82;21484;-41
2021/04/20 03:03:58;;;;;;;;;;;;;;;6.86;79.68;100117.00;1709332;82;21608;-43
2021/04/20 03:06:25;;;;;;;15.83;14.05;;;;;;;6.87;79.96;100110.27;1721020;82;20529;-39
2021/04/20 03:08:53;;;;;;;15.43;13.83;;;;;;;6.88;80.08;100114.66;1712405;81;22047;-44
2021/04/20 03:11:24;;;;;;;15.58;13.50;;;;;;;6.89;80.29;100112.86;1702483;82;21684;-43
2021/04/20 03:13:51;;;;;;;13.28;11.93;;;;;;;6.89;80.29;100112.86;1723613;81;21188;-44
2021/04/20 03:16:21;;;;;;;17.23;12.90;;;;;;;6.90;80.39;100113.23;1743924;81;21638;-41
2021/04/20 03:18:49;;;;;;;13.90;12.05;;;;;;;6.99;80.38;100122.08;1733135;81;21412;-43
2021/04/20 03:21:17;;;;;;;14.20;11.97;;;;;;;7.04;80.61;100114.75;1698905;81;21152;-42
2021/04/20 03:23:45;;;;;;;17.02;12.40;;;;;;;7.04;80.61;100114.75;1723194;81;21169;-42
2021/04/20 03:26:30;;;;;;;14.68;11.63;;;;;;;7.07;80.38;100113.74;1710342;81;21198;-42
2021/04/20 03:29:00;;;;;;;14.45;12.07;;;;;;;7.07;80.41;100108.44;1674898;83;21184;-41
2021/04/20 03:31:28;;;;;;;13.70;11.73;;;;;;;7.08;80.57;100118.98;1677281;84;21227;-42
2021/04/20 03:34:20;;;;;;;13.10;11.68;;;;;;;7.07;80.72;100119.05;1675002;82;21196;-42
2021/04/20 03:37:01;;;;;;;15.32;11.88;;;;;;;7.06;80.78;100118.19;1685514;82;21489;-41
2021/04/20 03:39:54;;;;;;;14.87;13.32;;;;;;;7.15;80.78;100115.06;1775000;78;28637;-44
2021/04/20 03:42:24;;;;;;;13.72;11.57;;;;;;;7.17;80.84;100112.82;1764262;79;21116;-42
2021/04/20 03:44:54;;;;;;;12.10;10.90;;;;;;;7.27;80.80;100114.92;1765588;79;21122;-40
2021/04/20 03:47:28;;;;;;;14.90;13.30;;;;;;;7.32;80.76;100110.24;1783265;79;21859;-43
2021/04/20 03:49:56;;;;;;;13.95;11.70;;;;;;;7.37;80.73;100104.71;1719607;81;21157;-41
2021/04/20 03:52:29;;;;;;;14.15;11.68;;;;;;;7.41;80.75;100108.94;1739283;81;21160;-45
2021/04/20 03:54:57;;;;;;;15.03;11.85;;;;;;;7.44;80.71;100095.50;1745222;81;21150;-43
2021/04/20 03:57:24;;;;;;;12.50;11.20;;;;;;;7.50;80.67;100095.17;1702611;81;21170;-43
2021/04/20 03:59:52;;;;;;;14.00;11.12;;;;;;;7.59;80.56;100095.18;1712279;81;21741;-43
2021/04/20 04:02:20;;;;;;;15.80;11.20;;;;;;;7.63;80.68;100102.03;1710513;82;21165;-41
2021/04/20 04:04:47;;;;;;;12.18;10.93;;;;;;;7.70;80.43;100106.55;1712099;82;21169;-43
2021/04/20 04:07:15;;;;;;;12.65;10.93;;;;;;;7.73;80.40;100101.93;1709103;82;21172;-43
2021/04/20 04:09:43;;;;;;;12.90;10.98;;;;;;;7.78;80.44;100100.36;1727256;81;21590;-42
2021/04/20 04:12:12;;;;;;;14.70;12.00;;;;;;;7.82;80.45;100098.42;1705573;82;21159;-44
2021/04/20 04:14:40;;;;;;;12.23;10.90;;;;;;;7.84;80.37;100090.77;1723438;81;21226;-43
2021/04/20 04:17:10;;;;;;;11.70;10.18;;;;;;;7.88;80.29;100097.61;1678145;81;21213;-44
2021/04/20 04:19:44;;;;;;;14.25;10.82;;;;;;;7.91;80.18;100088.17;1709942;82;21149;-38
2021/04/20 04:22:14;;;;;;;12.55;10.68;;;;;;;7.94;80.01;100099.95;1696089;83;21145;-42
2021/04/20 04:24:46;;;;;;;12.50;11.15;;;;;;;7.98;79.85;100100.16;1719334;82;21189;-41
2021/04/20 04:27:14;;;;;;;12.50;9.75;;;;;;;8.03;79.71;100101.24;1669050;84;21160;-43
2021/04/20 04:29:42;;;;;;;13.83;10.10;;;;;;;8.07;79.55;100095.31;1656498;82;21147;-44
2021/04/20 04:32:11;;;;;;;12.30;9.75;;;;;;;8.12;79.63;100098.58;1696622;83;21191;-41
2021/04/20 04:34:40;;;;;;;14.98;11.85;;;;;;;8.15;79.52;100089.96;1675589;82;21169;-43
2021/04/20 04:37:08;;;;;;;13.53;10.85;;;;;;;8.18;79.37;100081.81;1699235;82;21189;-40
2021/04/20 04:39:38;;;;;;;12.45;10.93;;;;;;;8.24;79.10;100092.13;1701733;82;21163;-42
2021/04/20 04:42:06;;;;;;;10.82;9.73;;;;;;;8.27;78.98;100086.27;1681361;83;21189;-46
2021/04/20 04:44:34;;;;;;;12.00;10.80;;;;;;;8.29;78.79;100083.91;1682595;83;21168;-44
2021/04/20 04:47:02;;;;;;;12.25;9.75;;;;;;;8.31;78.49;100079.81;1684166;83;21640;-41
2021/04/20 04:49:30;;;;;;;12.95;11.05;;;;;;;8.32;78.39;100078.42;1697178;84;21644;-42
2021/04/20 04:51:59;;;;;;;14.58;11.38;;;;;;;8.32;78.29;100074.91;1699511;83;21225;-43
2021/04/20 04:54:26;;;;;;;12.35;10.68;;;;;;;8.30;77.97;100077.64;1711682;81;21165;-40
2021/04/20 04:56:54;;;;;;;14.80;10.65;;;;;;;8.27;77.85;100073.83;1695303;82;21177;-40
2021/04/20 04:59:22;;;;;;;13.72;10.60;;;;;;;8.29;77.92;100070.63;1698837;83;21185;-41
2021/04/20 05:01:51;;;;;;;14.10;10.43;;;;;;;8.34;77.96;100073.88;1695977;83;21176;-43
2021/04/20 05:04:24;;;;;;;12.58;11.33;;;;;;;8.38;77.80;100069.23;1680244;83;21581;-46
2021/04/20 05:06:54;;;;;;;12.75;11.03;;;;;;;8.42;77.64;100070.83;1726754;81;21113;-42
2021/04/20 05:09:23;;;;;;;12.05;10.85;;;;;;;8.44;77.65;100066.26;1713408;81;21576;-46
2021/04/20 05:11:52;;;;;;;14.45;11.43;;;;;;;8.48;77.71;100070.95;1702321;82;21499;-45
2021/04/20 05:14:22;;;;;;;14.20;10.58;;;;;;;8.51;77.67;100067.63;1697600;82;21643;-44
2021/04/20 05:16:53;;;;;;;13.03;11.00;;;;;;;8.55;77.58;100067.86;1697100;82;21173;-45
2021/04/20 05:19:30;;;;;;;11.93;10.28;;;;;;;8.61;77.63;100066.16;1701690;82;21137;-43
2021/04/20 05:21:59;;;;;;;12.65;9.75;;;;;;;8.69;77.25;100070.19;1698196;82;21226;-43
2021/04/20 05:24:27;;;;;;;12.88;10.20;;;;;;;8.74;76.94;100064.99;1699241;82;22075;-43
2021/04/20 05:26:56;;;;;;;10.30;9.20;;;;;;;8.80;76.70;100067.80;1693419;82;21172;-44
2021/04/20 05:29:24;;;;;;;11.15;8.83;;;;;;;8.88;76.63;100073.52;1694804;82;21169;-43
2021/04/20 05:31:52;;;;;;;11.40;9.50;;;;;;;8.94;76.54;100074.48;1693836;82;21153;-44
2021/04/20 05:34:20;;;;;;;9.00;8.03;;;;;;;9.03;76.51;100072.62;1695646;82;21147;-46
2021/04/20 05:36:49;;;;;;;8.78;7.87;;;;;;;9.13;76.31;100070.77;1696619;82;21145;-48
2021/04/20 05:39:17;;;;;;;11.28;7.80;;;;;;;9.21;76.22;100067.17;1687228;83;21585;-47
2021/04/20 05:41:45;;;;;;;8.60;7.58;;;;;;;9.29;76.17;100068.41;1668682;83;21611;-44
2021/04/20 05:44:14;;;;;;;9.70;8.08;;;;;;;9.39;75.75;100062.55;1684877;82;21720;-46
2021/04/20 05:46:46;;;;;;;9.15;7.22;;;;;;;9.48;75.49;100062.01;1710650;81;21307;-44
2021/04/20 05:49:16;;;;;;;11.68;6.78;;;;;;;9.58;75.12;100055.66;1704263;81;21133;-41
2021/04/20 05:51:44;;;;;;;6.70;5.55;;;;;;;9.67;74.61;100051.93;1716952;81;21120;-39
2021/04/20 05:54:12;;;;;;;6.47;5.78;;;;;;;9.75;73.60;100055.00;1683395;83;21217;-39
2021/04/20 05:56:41;;;;;;;5.95;5.35;;;;;;;9.78;72.24;100054.41;1673113;83;21170;-42
2021/04/20 05:59:09;;;;;;;6.53;5.62;;;;;;;9.76;71.24;100054.52;1688880;81;21189;-43
2021/04/20 06:01:40;;;;;;;5.75;5.25;;;;;;;9.75;71.41;100054.12;1665522;83;21165;-42
2021/04/20 06:04:24;;;;;;;6.30;5.00;;;;;;;9.79;71.44;100052.14;1671086;83;22012;-41
2021/04/20 06:07:26;;;;;;;6.37;5.78;;;;;;;9.85;71.54;100050.41;1681362;83;21145;-39
2021/04/20 06:10:47;;;;;;;7.03;6.33;;;;;;;9.89;70.14;100048.80;1644243;84;21111;-41
2021/04/20 06:13:15;;;;;;;8.30;6.08;;;;;;;9.87;70.08;100048.03;1668249;84;21159;-44
2021/04/20 06:15:43;;;;;;;8.78;6.33;;;;;;;9.89;70.85;100047.95;1671799;83;22146;-39
2021/04/20 06:18:11;;;;;;;7.40;6.65;;;;;;;9.96;71.36;100043.96;1714670;80;21171;-41
2021/04/20 06:20:38;;;;;;;7.67;6.08;;;;;;;10.07;71.63;100033.47;1713014;80;21118;-41
2021/04/20 06:23:06;;;;;;;7.78;6.60;;;;;;;10.19;71.24;100039.84;1709923;80;21624;-40
2021/04/20 06:25:34;;;;;;;7.47;6.78;;;;;;;10.28;70.60;100041.08;1728187;80;21191;-43
2021/04/20 06:28:02;;;;;;;8.78;7.17;;;;;;;10.33;70.17;100034.97;1704767;82;21133;-43
2021/04/20 06:30:40;;;;;;;7.83;6.92;;;;;;;10.39;70.50;100034.59;1702678;80;21123;-42
2021/04/20 06:33:34;;;;;;;8.85;6.55;;;;;;;10.49;70.50;100031.70;1663592;83;21386;-41
2021/04/20 06:36:30;;;;;;;9.53;6.00;;;;;;;10.58;70.10;100028.91;1712799;80;21137;-41
2021/04/20 06:39:52;;;;;;;8.28;6.12;;;;;;;10.73;69.55;100018.55;1840905;75;28177;-41
2021/04/20 06:42:20;;;;;;;8.15;6.87;;;;;;;10.73;69.24;100021.22;1831817;77;21268;-45
2021/04/20 06:44:59;;;;;;;7.60;6.40;;;;;;;10.79;69.19;100017.32;1833763;77;21173;-41
2021/04/20 06:48:06;;;;;;;9.05;6.33;;;;;;;10.87;69.21;100015.47;1781503;78;21556;-43
2021/04/20 06:50:34;;;;;;;9.03;6.80;;;;;;;10.93;69.28;100015.05;1805998;78;21240;-42
2021/04/20 06:53:16;;;;;;;7.55;6.60;;;;;;;10.99;68.66;100018.66;1840587;75;21720;-45
2021/04/20 06:56:18;;;;;;;7.78;6.97;;;;;;;11.02;68.19;100023.29;1846948;76;21093;-43
2021/04/20 06:59:15;;;;;;;8.78;6.35;;;;;;;11.03;68.13;100016.13;1844997;77;21153;-47
2021/04/20 07:06:17;;;;;;;7.42;6.62;;;;;;;11.13;68.42;100016.37;1721614;81;21088;-44
2021/04/20 07:09:02;;;;;;;6.58;5.62;;;;;;;11.20;67.85;100014.51;1723614;81;21596;-45
2021/04/20 07:11:32;;;;;;;6.67;5.87;;;;;;;11.24;67.52;100013.35;1750808;80;21172;-47
2021/04/20 07:14:03;;;;;;;6.58;5.72;;;;;;;11.28;67.48;100004.64;1755245;80;21124;-44
2021/04/20 07:16:36;;;;;;;7.35;6.55;;;;;;;11.33;67.50;100007.00;1726967;81;21200;-44
2021/04/20 07:19:47;;;;;;;7.15;6.45;;;;;;;11.36;67.13;100000.95;1731927;81;21692;-41
2021/04/20 07:22:43;;;;;;;7.30;6.03;;;;;;;11.44;67.15;99996.41;1797371;77;22856;-44
2021/04/20 07:26:07;;;;;;;7.00;6.22;;;;;;;11.47;67.40;99995.73;1775361;78;21190;-42
2021/04/20 07:30:14;;;;;;;6.65;6.00;;;;;;;11.55;67.34;99993.87;1579809;89;21156;-41
2021/04/20 07:37:49;;;;;;;5.85;5.20;;;;;;;11.75;66.24;99986.27;1823122;76;21105;-37
2021/04/20 07:40:28;;;;;;;6.12;4.90;;;;;;;11.91;65.64;99983.74;1839882;76;21565;-37
2021/04/20 07:43:30;;;;;;;6.50;4.45;;;;;;;11.98;62.88;99981.98;1834822;76;21145;-37
2021/04/20 07:46:17;;;;;;;6.00;4.60;;;;;;;11.97;62.66;99985.14;1846565;75;21134;-39
2021/04/20 07:49:09;;;;;;;5.87;4.75;;;;;;;11.93;62.73;99979.64;1835243;76;21312;-37
2021/04/20 07:52:02;;;;;;;5.67;4.65;;;;;;;11.98;62.71;99984.17;1819922;76;21138;-37
2021/04/20 07:54:59;;;;;;;4.55;4.00;;;;;;;12.06;61.66;99979.60;1827371;76;21099;-38
2021/04/20 07:57:34;;;;;;;5.12;4.62;;;;;;;12.03;61.33;99971.33;1832079;75;21138;-40
2021/04/20 08:00:07;;;;;;;5.37;4.20;;;;;;;12.05;61.46;99967.22;1828296;76;21140;-39
2021/04/20 08:02:57;;;;;;;7.20;4.28;;;;;;;11.98;60.59;99967.28;1826643;75;21133;-43
2021/04/20 08:06:02;;;;;;;6.58;4.37;;;;;;;11.87;60.82;99968.07;1821583;76;21153;-41
2021/04/20 08:08:56;;;;;;;4.70;3.62;;;;;;;11.73;61.03;99960.99;1846648;76;21136;-45
2021/04/20 08:11:45;;;;;;;4.55;3.87;;;;;;;11.67;61.33;99954.77;1777255;79;21522;-44
2021/04/20 08:14:27;;;;;;;4.60;3.30;;;;;;;11.65;61.62;99960.20;1765523;79;21344;-46
2021/04/20 08:17:03;;;;;;;4.60;3.58;;;;;;;11.66;61.69;99955.23;1832164;76;21177;-43
2021/04/20 08:19:40;;;;;;;3.65;3.15;;;;;;;11.65;61.27;99954.02;1841936;75;21693;-46
2021/04/20 08:22:08;;;;;;;4.00;3.37;;;;;;;11.63;61.44;99959.45;1803534;75;21144;-41
2021/04/20 08:24:42;;;;;;;5.33;4.83;;;;;;;11.67;62.25;99960.95;1777832;78;21141;-43
2021/04/20 08:27:20;;;;;;;4.42;3.98;;;;;;;11.76;62.92;99957.25;1727142;81;21133;-44
2021/04/20 08:29:48;;;;;;;5.30;4.00;;;;;;;11.85;63.40;99961.45;1765374;79;21604;-41
2021/04/20 08:32:20;;;;;;;4.12;3.72;;;;;;;11.94;63.57;99960.45;1790171;78;21964;-40
2021/04/20 08:35:02;;;;;;;5.17;4.67;;;;;;;12.01;63.68;99958.55;1781547;78;21208;-43
2021/04/20 08:37:57;;;;;;;6.47;4.78;;;;;;;12.07;63.70;99959.92;1725482;80;21137;-41
2021/04/20 08:40:52;;;;;;;4.92;4.35;;;;;;;12.12;63.35;99960.47;1690581;82;21149;-40
2021/04/20 08:43:40;;;;;;;5.70;5.10;;;;;;;12.17;63.00;99961.44;1772506;78;21296;-42
2021/04/20 08:46:41;;;;;;;5.10;4.60;;;;;;;12.19;62.05;99966.20;1769690;79;21562;-42
2021/04/20 08:49:36;;;;;;;7.85;5.60;;;;;;;12.15;62.45;99963.40;1767246;79;21181;-39
2021/04/20 08:52:26;;;;;;;5.87;5.05;;;;;;;12.16;63.00;99961.93;1765695;78;21128;-43
2021/04/20 08:55:43;;;;;;;5.55;4.53;;;;;;;12.26;63.37;99958.95;1788482;78;23101;-44
2021/04/20 08:58:45;;;;;;;6.85;5.17;;;;;;;12.27;63.40;99960.67;1768611;79;21156;-46
2021/04/20 09:01:36;;;;;;;5.65;5.10;;;;;;;12.33;63.81;99956.20;1770596;79;21148;-43
2021/04/20 09:04:22;;;;;;;6.12;5.40;;;;;;;12.36;63.81;99958.28;1771900;79;21176;-46
2021/04/20 09:06:55;;;;;;;6.55;5.95;;;;;;;12.43;63.90;99955.53;1778131;79;21164;-44
2021/04/20 09:09:25;;;;;;;6.72;6.05;;;;;;;12.48;63.92;99953.36;1730982;80;21304;-45
2021/04/20 09:12:02;;;;;;;7.62;6.80;;;;;;;12.52;63.65;99950.81;1721587;81;21542;-45
2021/04/20 09:14:40;;;;;;;7.10;6.40;;;;;;;12.54;63.80;99947.54;1738874;80;21141;-44
2021/04/20 09:17:17;;;;;;;5.87;4.50;;;;;;;12.52;62.85;99941.45;1746070;81;21169;-44
2021/04/20 09:20:01;;;;;;;6.08;5.10;;;;;;;12.47;62.51;99945.83;1697152;82;22072;-46
2021/04/20 09:22:52;;;;;;;5.90;5.30;;;;;;;12.42;62.54;99939.09;1715100;81;21638;-45
2021/04/20 09:25:41;;;;;;;6.15;4.92;;;;;;;12.44;63.25;99929.99;1716614;81;21150;-45
2021/04/20 09:28:31;;;;;;;5.62;5.12;;;;;;;12.52;63.03;99927.62;1711179;82;21159;-45
2021/04/20 09:31:21;;;;;;;7.30;5.50;;;;;;;12.57;62.59;99921.89;1724544;82;21164;-44
2021/04/20 09:33:53;;;;;;;5.25;4.72;;;;;;;12.61;62.24;99919.38;1747916;80;21169;-45
2021/04/20 09:36:23;;;;;;;4.97;4.47;;;;;;;12.66;62.34;99917.20;1727867;81;21163;-44
2021/04/20 09:39:09;;;;;;;6.10;4.97;;;;;;;12.72;61.10;99918.05;1692291;81;21160;-45
2021/04/20 09:41:41;;;;;;;7.97;7.17;;;;;;;12.75;60.04;99911.62;1701443;82;21612;-43
2021/04/20 09:44:24;;;;;;;6.12;4.92;;;;;;;12.72;58.93;99903.84;1694735;82;21199;-44
2021/04/20 09:47:08;;;;;;;5.60;4.83;;;;;;;12.67;60.05;99902.84;1698952;82;21132;-45
2021/04/20 09:50:14;;;;;;;5.87;5.20;;;;;;;12.67;59.87;99897.98;1657031;83;21162;-44
2021/04/20 09:53:07;;;;;;;6.03;5.37;;;;;;;12.61;59.39;99906.00;1751145;80;21432;-45
2021/04/20 09:55:42;;;;;;;12.78;9.60;;;;;;;12.51;59.82;99892.95;1752901;80;21154;-44
2021/04/20 09:58:10;;;;;;;24.23;17.62;;;;;;;12.49;58.10;99894.40;1719501;81;21182;-43
2021/04/20 10:00:41;;;;;;;16.23;14.03;;;;;;;12.40;58.11;99892.90;1724517;80;21167;-44
2021/04/20 10:03:20;;;;;;;12.68;9.85;;;;;;;12.31;58.39;99893.12;1765980;79;21586;-44
2021/04/20 10:06:05;;;;;;;32.95;17.10;;;;;;;12.27;58.26;99889.84;1724196;82;21186;-44
2021/04/20 10:09:11;;;;;;;20.43;12.28;;;;;;;12.29;58.48;99887.88;1796323;77;22911;-43
2021/04/20 10:12:06;;;;;;;23.98;16.73;;;;;;;12.25;59.21;99884.23;1774383;79;21161;-43
2021/04/20 10:15:01;;;;;;;16.50;11.30;;;;;;;12.23;57.56;99880.81;1765299;79;21169;-43
2021/04/20 10:17:48;;;;;;;11.48;8.98;;;;;;;12.23;58.62;99881.66;1739174;81;21169;-42
2021/04/20 10:20:45;;;;;;;5.87;4.90;;;;;;;12.31;58.49;99875.25;1712778;82;21150;-42
2021/04/20 10:23:50;;;;;;;3.75;3.15;;;;;;;12.34;55.82;99876.84;1710893;82;21553;-43
2021/04/20 10:26:36;;;;;;;6.20;5.45;;;;;;;12.29;55.70;99877.19;1709103;81;21153;-45
2021/04/20 10:29:18;;;;;;;5.75;4.78;;;;;;;12.26;55.68;99869.89;1650932;83;21314;-42
2021/04/20 10:31:58;;;;;;;5.85;3.90;;;;;;;12.27;56.99;99867.57;1600597;86;21667;-41
2021/04/20 10:34:25;;;;;;;4.53;4.07;;;;;;;12.26;56.72;99872.07;1605874;87;21199;-43
2021/04/20 10:36:55;;;;;;;4.92;4.15;;;;;;;12.22;56.44;99867.94;1608977;87;21936;-44
2021/04/20 10:39:26;;;;;;;5.17;3.40;;;;;;;12.19;56.60;99871.31;1623758;85;21162;-44
2021/04/20 10:41:55;;;;;;;7.95;6.72;;;;;;;12.20;57.32;99872.55;1598699;87;21256;-43
2021/04/20 10:44:26;;;;;;;4.65;3.77;;;;;;;12.27;56.25;99875.13;1600974;87;21339;-43
2021/04/20 10:47:19;;;;;;;3.75;3.20;;;;;;;12.36;55.55;99870.91;1778054;78;39009;-42
2021/04/20 10:49:56;;;;;;;3.05;2.45;;;;;;;12.40;55.62;99870.17;1731521;80;21992;-43
2021/04/20 10:52:28;;;;;;;4.12;3.67;;;;;;;12.49;54.72;99863.64;1762104;80;21124;-42
2021/04/20 10:55:01;;;;;;;7.25;5.90;;;;;;;12.52;53.60;99870.13;1778525;78;21168;-43
2021/04/20 10:57:30;;;;;;;5.92;5.33;;;;;;;12.51;54.58;99871.56;1764088;78;21160;-43
2021/04/20 10:59:57;;;;;;;5.67;4.67;;;;;;;12.50;54.38;99870.72;1725011;80;21173;-43
2021/04/20 11:02:34;;;;;;;6.05;4.03;;;;;;;12.47;53.74;99872.30;1708794;82;21204;-43
2021/04/20 11:05:01;;;;;;;4.83;3.77;;;;;;;12.45;54.98;99872.89;1711546;81;21175;-41
2021/04/20 11:07:40;;;;;;;6.12;4.30;;;;;;;12.50;54.92;99865.86;1709080;82;21200;-42
2021/04/20 11:10:10;;;;;;;4.87;3.70;;;;;;;12.53;54.43;99869.63;1715905;81;21164;-44
2021/04/20 11:12:42;;;;;;;4.95;4.42;;;;;;;12.53;54.63;99866.47;1732048;81;21547;-45
2021/04/20 11:15:18;;;;;;;3.95;3.37;;;;;;;12.58;54.56;99859.44;1727203;80;21204;-45
2021/04/20 11:18:00;;;;;;;3.72;3.33;;;;;;;12.60;53.38;99857.50;1711132;81;21167;-43
2021/04/20 11:20:42;;;;;;;3.08;2.77;;;;;;;12.55;53.61;99857.84;1717740;81;21822;-44
2021/04/20 11:23:23;;;;;;;4.67;3.10;;;;;;;12.52;53.11;99858.09;1734615;81;21153;-44
2021/04/20 11:25:56;;;;;;;4.92;3.95;;;;;;;12.52;53.26;99856.75;1724474;81;21182;-45
2021/04/20 11:28:32;;;;;;;4.47;3.62;;;;;;;12.53;53.17;99851.76;1710295;82;21183;-41
2021/04/20 11:31:03;;;;;;;4.22;3.42;;;;;;;12.53;52.17;99849.58;1743466;81;21215;-54
2021/04/20 11:34:12;;;;;;;3.75;3.08;;;;;;;12.51;52.00;99848.83;1744265;80;21176;-44
2021/04/20 11:37:06;;;;;;;3.70;3.05;;;;;;;12.50;53.72;99848.48;1702866;82;21371;-45
2021/04/20 11:40:18;;;;;;;3.30;2.77;;;;;;;12.68;54.68;99840.37;1775359;79;22976;-43
2021/04/20 11:42:49;;;;;;;5.70;3.80;;;;;;;12.74;55.26;99839.03;1696260;81;21165;-45
2021/04/20 11:45:20;;;;;;;3.10;2.60;;;;;;;12.84;55.08;99848.55;1723022;81;21594;-45
2021/04/20 11:48:03;;;;;;;4.03;3.30;;;;;;;12.89;53.86;99843.19;1721518;80;21157;-44
2021/04/20 11:50:35;;;;;;;4.00;3.02;;;;;;;12.90;54.02;99833.33;1715156;82;21144;-45
2021/04/20 11:53:05;;;;;;;4.90;3.90;;;;;;;12.93;53.62;99834.45;1730192;81;21640;-42
2021/04/20 11:55:36;;;;;;;4.37;3.47;;;;;;;12.91;53.46;99821.67;1723726;82;21562;-47
2021/04/20 11:58:10;;;;;;;3.90;2.67;;;;;;;12.87;53.68;99820.20;1729564;81;21143;-44
2021/04/20 12:00:40;;;;;;;3.70;2.85;;;;;;;12.83;54.08;99818.27;1721516;81;21141;-45
2021/04/20 12:03:10;;;;;;;4.77;3.37;;;;;;;12.87;53.83;99817.03;1743065;80;21126;-45
2021/04/20 12:05:40;;;;;;;3.90;2.80;;;;;;;12.87;51.78;99815.69;1743957;81;21466;-43
2021/04/20 12:08:10;;;;;;;4.42;3.52;;;;;;;12.87;52.15;99814.85;1745556;80;21176;-42
2021/04/20 12:10:38;;;;;;;3.17;2.67;;;;;;;12.88;51.49;99809.88;1697801;81;21129;-42
2021/04/20 12:13:06;;;;;;;4.50;2.47;;;;;;;12.87;51.28;99801.47;1743972;81;21149;-44
2021/04/20 12:15:34;;;;;;;3.50;2.75;;;;;;;12.90;52.17;99805.23;1749827;81;21150;-44